sensor_id;sensor_type;location;lat;lon;timestamp;P1;durP1;ratioP1;P2;durP2;ratioP2
583;SDS011;27024;54.068;12.116;2022-08-21T00:00:13;4.57;;;1.50;;
583;SDS011;27024;54.068;12.116;2022-08-21T00:02:46;8.32;;;2.03;;
583;SDS011;27024;54.068;12.116;2022-08-21T00:05:15;5.57;;;1.50;;
583;SDS011;27024;54.068;12.116;2022-08-21T00:07:43;6.05;;;1.80;;
583;SDS011;27024;54.068;12.116;2022-08-21T00:10:10;5.38;;;1.50;;
583;SDS011;27024;54.068;12.116;2022-08-21T00:12:38;6.47;;;1.83;;
583;SDS011;27024;54.068;12.116;2022-08-21T00:15:07;6.88;;;1.40;;
583;SDS011;27024;54.068;12.116;2022-08-21T00:17:37;7.15;;;1.63;;
583;SDS011;27024;54.068;12.116;2022-08-21T00:20:05;4.28;;;1.45;;
583;SDS011;27024;54.068;12.116;2022-08-21T00:22:35;7.25;;;1.65;;
583;SDS011;27024;54.068;12.116;2022-08-21T00:25:03;7.55;;;1.90;;
583;SDS011;27024;54.068;12.116;2022-08-21T00:27:32;5.13;;;1.50;;
583;SDS011;27024;54.068;12.116;2022-08-21T00:29:59;5.15;;;1.27;;
583;SDS011;27024;54.068;12.116;2022-08-21T00:32:27;4.47;;;1.70;;
583;SDS011;27024;54.068;12.116;2022-08-21T00:34:54;8.07;;;1.85;;
583;SDS011;27024;54.068;12.116;2022-08-21T00:37:21;4.28;;;1.30;;
583;SDS011;27024;54.068;12.116;2022-08-21T00:39:48;7.72;;;1.80;;
583;SDS011;27024;54.068;12.116;2022-08-21T00:42:15;6.95;;;1.55;;
583;SDS011;27024;54.068;12.116;2022-08-21T00:44:43;8.38;;;1.77;;
583;SDS011;27024;54.068;12.116;2022-08-21T00:47:13;7.22;;;1.85;;
583;SDS011;27024;54.068;12.116;2022-08-21T00:49:40;6.03;;;1.73;;
583;SDS011;27024;54.068;12.116;2022-08-21T00:52:11;7.05;;;2.03;;
583;SDS011;27024;54.068;12.116;2022-08-21T00:54:44;6.25;;;1.90;;
583;SDS011;27024;54.068;12.116;2022-08-21T00:57:14;7.78;;;1.88;;
583;SDS011;27024;54.068;12.116;2022-08-21T00:59:49;4.53;;;1.13;;
583;SDS011;27024;54.068;12.116;2022-08-21T01:02:18;7.18;;;1.90;;
583;SDS011;27024;54.068;12.116;2022-08-21T01:04:46;5.68;;;1.40;;
583;SDS011;27024;54.068;12.116;2022-08-21T01:07:15;8.60;;;1.70;;
583;SDS011;27024;54.068;12.116;2022-08-21T01:09:48;5.57;;;1.60;;
583;SDS011;27024;54.068;12.116;2022-08-21T01:12:15;5.40;;;1.63;;
583;SDS011;27024;54.068;12.116;2022-08-21T01:14:42;5.72;;;2.22;;
583;SDS011;27024;54.068;12.116;2022-08-21T01:17:11;5.63;;;1.70;;
583;SDS011;27024;54.068;12.116;2022-08-21T01:19:39;5.05;;;1.40;;
583;SDS011;27024;54.068;12.116;2022-08-21T01:22:07;6.30;;;1.70;;
583;SDS011;27024;54.068;12.116;2022-08-21T01:24:34;5.03;;;1.70;;
583;SDS011;27024;54.068;12.116;2022-08-21T01:27:01;5.15;;;1.77;;
583;SDS011;27024;54.068;12.116;2022-08-21T01:29:35;8.25;;;1.60;;
583;SDS011;27024;54.068;12.116;2022-08-21T01:32:07;5.95;;;1.60;;
583;SDS011;27024;54.068;12.116;2022-08-21T01:34:42;7.30;;;1.80;;
583;SDS011;27024;54.068;12.116;2022-08-21T01:37:10;6.43;;;1.67;;
583;SDS011;27024;54.068;12.116;2022-08-21T01:39:38;6.80;;;1.80;;
583;SDS011;27024;54.068;12.116;2022-08-21T01:42:05;5.10;;;1.63;;
583;SDS011;27024;54.068;12.116;2022-08-21T01:44:33;4.63;;;1.60;;
583;SDS011;27024;54.068;12.116;2022-08-21T01:47:02;7.82;;;2.03;;
583;SDS011;27024;54.068;12.116;2022-08-21T01:49:31;5.97;;;1.70;;
583;SDS011;27024;54.068;12.116;2022-08-21T01:51:58;5.75;;;1.92;;
583;SDS011;27024;54.068;12.116;2022-08-21T01:54:25;6.50;;;1.77;;
583;SDS011;27024;54.068;12.116;2022-08-21T01:56:52;6.00;;;1.95;;
583;SDS011;27024;54.068;12.116;2022-08-21T01:59:21;7.57;;;2.25;;
583;SDS011;27024;54.068;12.116;2022-08-21T02:01:49;7.00;;;1.92;;
583;SDS011;27024;54.068;12.116;2022-08-21T02:04:17;6.00;;;1.77;;
583;SDS011;27024;54.068;12.116;2022-08-21T02:06:43;6.97;;;1.90;;
583;SDS011;27024;54.068;12.116;2022-08-21T02:09:11;5.60;;;1.70;;
583;SDS011;27024;54.068;12.116;2022-08-21T02:11:40;6.68;;;2.05;;
583;SDS011;27024;54.068;12.116;2022-08-21T02:14:08;5.60;;;1.77;;
583;SDS011;27024;54.068;12.116;2022-08-21T02:16:35;4.35;;;1.77;;
583;SDS011;27024;54.068;12.116;2022-08-21T02:19:03;9.30;;;2.22;;
583;SDS011;27024;54.068;12.116;2022-08-21T02:21:30;5.97;;;1.88;;
583;SDS011;27024;54.068;12.116;2022-08-21T02:23:57;8.38;;;2.00;;
583;SDS011;27024;54.068;12.116;2022-08-21T02:26:24;7.60;;;1.52;;
583;SDS011;27024;54.068;12.116;2022-08-21T02:28:51;5.15;;;1.90;;
583;SDS011;27024;54.068;12.116;2022-08-21T02:31:18;4.50;;;1.85;;
583;SDS011;27024;54.068;12.116;2022-08-21T02:33:45;5.78;;;1.95;;
583;SDS011;27024;54.068;12.116;2022-08-21T02:36:12;5.50;;;2.30;;
583;SDS011;27024;54.068;12.116;2022-08-21T02:38:40;8.93;;;1.95;;
583;SDS011;27024;54.068;12.116;2022-08-21T02:41:12;6.05;;;1.48;;
583;SDS011;27024;54.068;12.116;2022-08-21T02:43:41;10.85;;;2.60;;
583;SDS011;27024;54.068;12.116;2022-08-21T02:46:08;6.47;;;1.73;;
583;SDS011;27024;54.068;12.116;2022-08-21T02:48:37;10.98;;;2.53;;
583;SDS011;27024;54.068;12.116;2022-08-21T02:51:06;4.82;;;1.83;;
583;SDS011;27024;54.068;12.116;2022-08-21T02:53:34;8.75;;;1.88;;
583;SDS011;27024;54.068;12.116;2022-08-21T02:56:03;6.57;;;2.03;;
583;SDS011;27024;54.068;12.116;2022-08-21T02:58:33;4.03;;;2.13;;
583;SDS011;27024;54.068;12.116;2022-08-21T03:01:05;8.90;;;1.92;;
583;SDS011;27024;54.068;12.116;2022-08-21T03:03:40;6.55;;;2.10;;
583;SDS011;27024;54.068;12.116;2022-08-21T03:06:08;5.60;;;1.67;;
583;SDS011;27024;54.068;12.116;2022-08-21T03:08:38;6.95;;;1.90;;
583;SDS011;27024;54.068;12.116;2022-08-21T03:11:13;6.45;;;1.67;;
583;SDS011;27024;54.068;12.116;2022-08-21T03:13:41;8.45;;;2.97;;
583;SDS011;27024;54.068;12.116;2022-08-21T03:16:08;5.65;;;2.03;;
583;SDS011;27024;54.068;12.116;2022-08-21T03:18:36;7.25;;;2.00;;
583;SDS011;27024;54.068;12.116;2022-08-21T03:21:05;5.18;;;2.10;;
583;SDS011;27024;54.068;12.116;2022-08-21T03:23:32;7.00;;;2.15;;
583;SDS011;27024;54.068;12.116;2022-08-21T03:25:59;6.32;;;2.28;;
583;SDS011;27024;54.068;12.116;2022-08-21T03:28:26;12.27;;;2.13;;
583;SDS011;27024;54.068;12.116;2022-08-21T03:30:53;7.43;;;1.73;;
583;SDS011;27024;54.068;12.116;2022-08-21T03:33:21;7.00;;;2.65;;
583;SDS011;27024;54.068;12.116;2022-08-21T03:35:56;7.72;;;2.25;;
583;SDS011;27024;54.068;12.116;2022-08-21T03:38:28;5.55;;;1.88;;
583;SDS011;27024;54.068;12.116;2022-08-21T03:40:56;6.25;;;1.90;;
583;SDS011;27024;54.068;12.116;2022-08-21T03:43:23;6.60;;;1.98;;
583;SDS011;27024;54.068;12.116;2022-08-21T03:45:50;5.72;;;2.03;;
583;SDS011;27024;54.068;12.116;2022-08-21T03:48:18;8.05;;;2.42;;
583;SDS011;27024;54.068;12.116;2022-08-21T03:50:45;9.88;;;2.15;;
583;SDS011;27024;54.068;12.116;2022-08-21T03:53:13;6.35;;;2.67;;
583;SDS011;27024;54.068;12.116;2022-08-21T03:55:47;6.80;;;1.90;;
583;SDS011;27024;54.068;12.116;2022-08-21T03:58:16;9.82;;;2.28;;
583;SDS011;27024;54.068;12.116;2022-08-21T04:00:47;4.93;;;1.83;;
583;SDS011;27024;54.068;12.116;2022-08-21T04:03:16;12.60;;;2.63;;
583;SDS011;27024;54.068;12.116;2022-08-21T04:05:44;8.52;;;2.30;;
583;SDS011;27024;54.068;12.116;2022-08-21T04:08:12;6.88;;;2.05;;
583;SDS011;27024;54.068;12.116;2022-08-21T04:10:41;8.10;;;2.13;;
583;SDS011;27024;54.068;12.116;2022-08-21T04:13:09;5.13;;;2.13;;
583;SDS011;27024;54.068;12.116;2022-08-21T04:15:37;9.27;;;2.33;;
583;SDS011;27024;54.068;12.116;2022-08-21T04:18:04;8.25;;;2.45;;
583;SDS011;27024;54.068;12.116;2022-08-21T04:20:32;7.90;;;2.35;;
583;SDS011;27024;54.068;12.116;2022-08-21T04:22:59;8.40;;;2.53;;
583;SDS011;27024;54.068;12.116;2022-08-21T04:25:27;7.25;;;2.28;;
583;SDS011;27024;54.068;12.116;2022-08-21T04:27:54;8.55;;;2.33;;
583;SDS011;27024;54.068;12.116;2022-08-21T04:30:21;9.20;;;2.42;;
583;SDS011;27024;54.068;12.116;2022-08-21T04:32:54;6.60;;;2.20;;
583;SDS011;27024;54.068;12.116;2022-08-21T04:35:23;6.05;;;2.10;;
583;SDS011;27024;54.068;12.116;2022-08-21T04:37:50;7.88;;;3.25;;
583;SDS011;27024;54.068;12.116;2022-08-21T04:40:18;8.85;;;2.15;;
583;SDS011;27024;54.068;12.116;2022-08-21T04:43:09;8.23;;;2.90;;
583;SDS011;27024;54.068;12.116;2022-08-21T04:45:40;7.50;;;2.25;;
583;SDS011;27024;54.068;12.116;2022-08-21T04:48:09;5.75;;;2.03;;
583;SDS011;27024;54.068;12.116;2022-08-21T04:53:34;6.80;;;1.98;;
583;SDS011;27024;54.068;12.116;2022-08-21T04:58:53;5.20;;;2.05;;
583;SDS011;27024;54.068;12.116;2022-08-21T05:01:24;6.93;;;2.10;;
583;SDS011;27024;54.068;12.116;2022-08-21T05:03:54;6.20;;;1.92;;
583;SDS011;27024;54.068;12.116;2022-08-21T05:06:23;7.93;;;2.08;;
583;SDS011;27024;54.068;12.116;2022-08-21T05:08:51;5.60;;;2.20;;
583;SDS011;27024;54.068;12.116;2022-08-21T05:11:27;11.57;;;2.10;;
583;SDS011;27024;54.068;12.116;2022-08-21T05:13:56;9.40;;;2.60;;
583;SDS011;27024;54.068;12.116;2022-08-21T05:16:23;7.65;;;2.20;;
583;SDS011;27024;54.068;12.116;2022-08-21T05:19:03;5.60;;;2.08;;
583;SDS011;27024;54.068;12.116;2022-08-21T05:21:34;6.25;;;2.05;;
583;SDS011;27024;54.068;12.116;2022-08-21T05:24:02;7.95;;;2.30;;
583;SDS011;27024;54.068;12.116;2022-08-21T05:26:29;9.55;;;2.55;;
583;SDS011;27024;54.068;12.116;2022-08-21T05:28:56;6.20;;;2.13;;
583;SDS011;27024;54.068;12.116;2022-08-21T05:31:23;8.77;;;2.45;;
583;SDS011;27024;54.068;12.116;2022-08-21T05:33:50;8.80;;;2.10;;
583;SDS011;27024;54.068;12.116;2022-08-21T05:36:18;6.60;;;1.95;;
583;SDS011;27024;54.068;12.116;2022-08-21T05:38:45;8.13;;;2.10;;
583;SDS011;27024;54.068;12.116;2022-08-21T05:41:13;8.48;;;2.22;;
583;SDS011;27024;54.068;12.116;2022-08-21T05:43:40;8.35;;;1.90;;
583;SDS011;27024;54.068;12.116;2022-08-21T05:46:07;8.10;;;2.08;;
583;SDS011;27024;54.068;12.116;2022-08-21T05:48:34;8.45;;;2.30;;
583;SDS011;27024;54.068;12.116;2022-08-21T05:51:06;7.97;;;2.30;;
583;SDS011;27024;54.068;12.116;2022-08-21T05:53:36;9.70;;;2.20;;
583;SDS011;27024;54.068;12.116;2022-08-21T05:56:04;5.28;;;2.47;;
583;SDS011;27024;54.068;12.116;2022-08-21T05:58:31;8.20;;;2.38;;
583;SDS011;27024;54.068;12.116;2022-08-21T06:00:59;6.57;;;2.50;;
583;SDS011;27024;54.068;12.116;2022-08-21T06:03:31;9.25;;;2.28;;
583;SDS011;27024;54.068;12.116;2022-08-21T06:06:00;6.82;;;2.20;;
583;SDS011;27024;54.068;12.116;2022-08-21T06:08:28;5.20;;;2.22;;
583;SDS011;27024;54.068;12.116;2022-08-21T06:10:56;7.85;;;3.53;;
583;SDS011;27024;54.068;12.116;2022-08-21T06:13:25;6.97;;;2.33;;
583;SDS011;27024;54.068;12.116;2022-08-21T06:18:34;5.55;;;1.88;;
583;SDS011;27024;54.068;12.116;2022-08-21T06:21:02;7.13;;;2.03;;
583;SDS011;27024;54.068;12.116;2022-08-21T06:23:29;8.20;;;2.00;;
583;SDS011;27024;54.068;12.116;2022-08-21T06:25:59;2.83;;;1.80;;
583;SDS011;27024;54.068;12.116;2022-08-21T06:28:27;9.40;;;2.75;;
583;SDS011;27024;54.068;12.116;2022-08-21T06:30:54;6.80;;;1.92;;
583;SDS011;27024;54.068;12.116;2022-08-21T06:33:21;6.85;;;2.17;;
583;SDS011;27024;54.068;12.116;2022-08-21T06:35:47;8.38;;;1.75;;
583;SDS011;27024;54.068;12.116;2022-08-21T06:38:15;7.30;;;1.88;;
583;SDS011;27024;54.068;12.116;2022-08-21T06:40:41;6.25;;;1.63;;
583;SDS011;27024;54.068;12.116;2022-08-21T06:43:13;9.02;;;1.60;;
583;SDS011;27024;54.068;12.116;2022-08-21T06:45:43;6.85;;;1.65;;
583;SDS011;27024;54.068;12.116;2022-08-21T06:48:10;6.72;;;1.55;;
583;SDS011;27024;54.068;12.116;2022-08-21T06:50:44;5.45;;;1.15;;
583;SDS011;27024;54.068;12.116;2022-08-21T06:53:11;8.15;;;1.90;;
583;SDS011;27024;54.068;12.116;2022-08-21T06:55:39;6.53;;;1.42;;
583;SDS011;27024;54.068;12.116;2022-08-21T06:58:06;7.70;;;1.60;;
583;SDS011;27024;54.068;12.116;2022-08-21T07:00:35;8.02;;;1.65;;
583;SDS011;27024;54.068;12.116;2022-08-21T07:03:04;6.53;;;1.40;;
583;SDS011;27024;54.068;12.116;2022-08-21T07:05:31;6.28;;;1.63;;
583;SDS011;27024;54.068;12.116;2022-08-21T07:07:58;7.97;;;1.60;;
583;SDS011;27024;54.068;12.116;2022-08-21T07:10:25;7.20;;;1.73;;
583;SDS011;27024;54.068;12.116;2022-08-21T07:12:53;6.07;;;1.60;;
583;SDS011;27024;54.068;12.116;2022-08-21T07:15:29;7.50;;;1.70;;
583;SDS011;27024;54.068;12.116;2022-08-21T07:17:57;6.63;;;1.73;;
583;SDS011;27024;54.068;12.116;2022-08-21T07:20:26;7.75;;;1.50;;
583;SDS011;27024;54.068;12.116;2022-08-21T07:22:55;8.13;;;1.55;;
583;SDS011;27024;54.068;12.116;2022-08-21T07:25:24;6.68;;;1.38;;
583;SDS011;27024;54.068;12.116;2022-08-21T07:27:51;5.80;;;1.35;;
583;SDS011;27024;54.068;12.116;2022-08-21T07:30:18;7.68;;;1.67;;
583;SDS011;27024;54.068;12.116;2022-08-21T07:32:45;5.30;;;1.58;;
583;SDS011;27024;54.068;12.116;2022-08-21T07:35:11;4.75;;;1.17;;
583;SDS011;27024;54.068;12.116;2022-08-21T07:37:38;6.57;;;1.25;;
583;SDS011;27024;54.068;12.116;2022-08-21T07:40:05;7.13;;;1.45;;
583;SDS011;27024;54.068;12.116;2022-08-21T07:42:33;6.82;;;1.27;;
583;SDS011;27024;54.068;12.116;2022-08-21T07:45:00;8.68;;;1.30;;
583;SDS011;27024;54.068;12.116;2022-08-21T07:47:27;8.15;;;1.52;;
583;SDS011;27024;54.068;12.116;2022-08-21T07:50:07;6.00;;;1.20;;
583;SDS011;27024;54.068;12.116;2022-08-21T07:52:36;5.40;;;1.20;;
583;SDS011;27024;54.068;12.116;2022-08-21T07:55:03;7.55;;;1.50;;
583;SDS011;27024;54.068;12.116;2022-08-21T07:57:32;7.47;;;1.63;;
583;SDS011;27024;54.068;12.116;2022-08-21T07:59:59;5.72;;;1.20;;
583;SDS011;27024;54.068;12.116;2022-08-21T08:02:27;7.13;;;1.52;;
583;SDS011;27024;54.068;12.116;2022-08-21T08:05:07;7.80;;;1.40;;
583;SDS011;27024;54.068;12.116;2022-08-21T08:07:35;6.50;;;1.25;;
583;SDS011;27024;54.068;12.116;2022-08-21T08:10:03;4.85;;;1.77;;
583;SDS011;27024;54.068;12.116;2022-08-21T08:12:33;4.30;;;1.15;;
583;SDS011;27024;54.068;12.116;2022-08-21T08:15:05;4.05;;;1.10;;
583;SDS011;27024;54.068;12.116;2022-08-21T08:17:35;4.45;;;1.20;;
583;SDS011;27024;54.068;12.116;2022-08-21T08:20:09;5.13;;;1.27;;
583;SDS011;27024;54.068;12.116;2022-08-21T08:22:38;5.50;;;1.00;;
583;SDS011;27024;54.068;12.116;2022-08-21T08:25:06;6.88;;;1.38;;
583;SDS011;27024;54.068;12.116;2022-08-21T08:27:35;5.90;;;1.20;;
583;SDS011;27024;54.068;12.116;2022-08-21T08:30:04;5.82;;;1.25;;
583;SDS011;27024;54.068;12.116;2022-08-21T08:32:32;6.78;;;1.50;;
583;SDS011;27024;54.068;12.116;2022-08-21T08:34:59;6.63;;;1.42;;
583;SDS011;27024;54.068;12.116;2022-08-21T08:37:27;4.68;;;1.20;;
583;SDS011;27024;54.068;12.116;2022-08-21T08:39:59;6.13;;;1.35;;
583;SDS011;27024;54.068;12.116;2022-08-21T08:42:31;5.15;;;1.23;;
583;SDS011;27024;54.068;12.116;2022-08-21T08:47:39;8.20;;;1.17;;
583;SDS011;27024;54.068;12.116;2022-08-21T08:50:12;9.48;;;1.08;;
583;SDS011;27024;54.068;12.116;2022-08-21T08:52:41;7.32;;;1.20;;
583;SDS011;27024;54.068;12.116;2022-08-21T08:55:14;7.30;;;1.40;;
583;SDS011;27024;54.068;12.116;2022-08-21T08:57:52;6.97;;;1.40;;
583;SDS011;27024;54.068;12.116;2022-08-21T09:00:21;5.43;;;1.10;;
583;SDS011;27024;54.068;12.116;2022-08-21T09:02:50;4.53;;;1.02;;
583;SDS011;27024;54.068;12.116;2022-08-21T09:05:55;7.18;;;1.73;;
583;SDS011;27024;54.068;12.116;2022-08-21T09:11:10;3.97;;;1.15;;
583;SDS011;27024;54.068;12.116;2022-08-21T09:13:53;4.85;;;1.20;;
583;SDS011;27024;54.068;12.116;2022-08-21T09:16:37;5.90;;;1.20;;
583;SDS011;27024;54.068;12.116;2022-08-21T09:28:30;5.97;;;1.20;;
583;SDS011;27024;54.068;12.116;2022-08-21T09:30:58;4.72;;;1.02;;
583;SDS011;27024;54.068;12.116;2022-08-21T09:33:28;4.78;;;1.00;;
583;SDS011;27024;54.068;12.116;2022-08-21T09:35:55;5.80;;;1.17;;
583;SDS011;27024;54.068;12.116;2022-08-21T09:38:26;8.13;;;1.30;;
583;SDS011;27024;54.068;12.116;2022-08-21T09:40:59;5.97;;;1.30;;
583;SDS011;27024;54.068;12.116;2022-08-21T09:43:31;6.85;;;1.42;;
583;SDS011;27024;54.068;12.116;2022-08-21T09:46:03;7.68;;;1.40;;
583;SDS011;27024;54.068;12.116;2022-08-21T09:49:06;5.60;;;1.40;;
583;SDS011;27024;54.068;12.116;2022-08-21T09:51:29;5.18;;;1.30;;
583;SDS011;27024;54.068;12.116;2022-08-21T09:56:35;7.28;;;1.45;;
583;SDS011;27024;54.068;12.116;2022-08-21T09:59:41;5.35;;;1.17;;
583;SDS011;27024;54.068;12.116;2022-08-21T10:05:20;8.70;;;1.95;;
583;SDS011;27024;54.068;12.116;2022-08-21T10:07:50;5.32;;;0.90;;
583;SDS011;27024;54.068;12.116;2022-08-21T10:10:21;7.50;;;1.50;;
583;SDS011;27024;54.068;12.116;2022-08-21T10:13:00;6.00;;;1.25;;
583;SDS011;27024;54.068;12.116;2022-08-21T10:29:22;6.32;;;1.65;;
583;SDS011;27024;54.068;12.116;2022-08-21T10:35:27;7.15;;;1.33;;
583;SDS011;27024;54.068;12.116;2022-08-21T10:43:43;7.22;;;1.20;;
583;SDS011;27024;54.068;12.116;2022-08-21T10:49:22;7.20;;;1.25;;
583;SDS011;27024;54.068;12.116;2022-08-21T10:55:08;6.38;;;1.20;;
583;SDS011;27024;54.068;12.116;2022-08-21T10:57:54;6.30;;;1.23;;
583;SDS011;27024;54.068;12.116;2022-08-21T11:00:30;4.82;;;1.33;;
583;SDS011;27024;54.068;12.116;2022-08-21T11:03:07;7.20;;;1.50;;
583;SDS011;27024;54.068;12.116;2022-08-21T11:05:55;5.22;;;1.25;;
583;SDS011;27024;54.068;12.116;2022-08-21T11:08:30;5.50;;;1.23;;
583;SDS011;27024;54.068;12.116;2022-08-21T11:14:09;4.10;;;1.15;;
583;SDS011;27024;54.068;12.116;2022-08-21T11:16:41;4.90;;;1.58;;
583;SDS011;27024;54.068;12.116;2022-08-21T11:21:53;6.45;;;1.92;;
583;SDS011;27024;54.068;12.116;2022-08-21T11:24:46;5.50;;;1.10;;
583;SDS011;27024;54.068;12.116;2022-08-21T11:27:22;4.35;;;1.35;;
583;SDS011;27024;54.068;12.116;2022-08-21T11:29:54;5.50;;;1.60;;
583;SDS011;27024;54.068;12.116;2022-08-21T11:45:51;6.35;;;1.58;;
583;SDS011;27024;54.068;12.116;2022-08-21T11:54:49;6.45;;;1.55;;
583;SDS011;27024;54.068;12.116;2022-08-21T11:57:26;5.13;;;1.35;;
583;SDS011;27024;54.068;12.116;2022-08-21T12:03:17;3.85;;;1.23;;
583;SDS011;27024;54.068;12.116;2022-08-21T12:05:58;6.68;;;1.63;;
583;SDS011;27024;54.068;12.116;2022-08-21T12:08:37;8.32;;;1.73;;
583;SDS011;27024;54.068;12.116;2022-08-21T12:16:38;4.32;;;1.40;;
583;SDS011;27024;54.068;12.116;2022-08-21T12:19:08;6.07;;;1.60;;
583;SDS011;27024;54.068;12.116;2022-08-21T12:27:12;5.20;;;1.75;;
583;SDS011;27024;54.068;12.116;2022-08-21T12:32:55;5.95;;;1.50;;
583;SDS011;27024;54.068;12.116;2022-08-21T12:35:40;5.25;;;1.20;;
583;SDS011;27024;54.068;12.116;2022-08-21T12:41:05;4.75;;;1.55;;
583;SDS011;27024;54.068;12.116;2022-08-21T12:43:42;6.20;;;1.30;;
583;SDS011;27024;54.068;12.116;2022-08-21T12:46:29;5.15;;;1.17;;
583;SDS011;27024;54.068;12.116;2022-08-21T12:55:05;5.20;;;1.13;;
583;SDS011;27024;54.068;12.116;2022-08-21T12:57:35;5.88;;;1.60;;
583;SDS011;27024;54.068;12.116;2022-08-21T13:00:05;6.20;;;1.40;;
583;SDS011;27024;54.068;12.116;2022-08-21T13:02:37;6.43;;;1.17;;
583;SDS011;27024;54.068;12.116;2022-08-21T13:05:11;5.75;;;1.33;;
583;SDS011;27024;54.068;12.116;2022-08-21T13:07:45;5.20;;;1.52;;
583;SDS011;27024;54.068;12.116;2022-08-21T13:10:16;6.18;;;1.15;;
583;SDS011;27024;54.068;12.116;2022-08-21T13:12:47;7.32;;;1.48;;
583;SDS011;27024;54.068;12.116;2022-08-21T13:15:15;4.68;;;1.25;;
583;SDS011;27024;54.068;12.116;2022-08-21T13:17:58;7.95;;;1.48;;
583;SDS011;27024;54.068;12.116;2022-08-21T13:20:34;6.43;;;1.35;;
583;SDS011;27024;54.068;12.116;2022-08-21T13:23:02;5.95;;;1.10;;
583;SDS011;27024;54.068;12.116;2022-08-21T13:25:36;4.25;;;1.40;;
583;SDS011;27024;54.068;12.116;2022-08-21T13:28:05;6.25;;;1.55;;
583;SDS011;27024;54.068;12.116;2022-08-21T13:30:34;5.68;;;1.10;;
583;SDS011;27024;54.068;12.116;2022-08-21T13:33:05;4.05;;;1.23;;
583;SDS011;27024;54.068;12.116;2022-08-21T13:35:48;4.97;;;1.40;;
583;SDS011;27024;54.068;12.116;2022-08-21T13:38:21;5.50;;;1.73;;
583;SDS011;27024;54.068;12.116;2022-08-21T13:40:54;6.60;;;1.58;;
583;SDS011;27024;54.068;12.116;2022-08-21T13:43:30;6.05;;;1.30;;
583;SDS011;27024;54.068;12.116;2022-08-21T13:45:59;4.78;;;1.20;;
583;SDS011;27024;54.068;12.116;2022-08-21T13:48:28;4.95;;;1.10;;
583;SDS011;27024;54.068;12.116;2022-08-21T13:50:58;5.43;;;1.60;;
583;SDS011;27024;54.068;12.116;2022-08-21T13:53:34;6.68;;;1.42;;
583;SDS011;27024;54.068;12.116;2022-08-21T14:01:00;5.57;;;1.65;;
583;SDS011;27024;54.068;12.116;2022-08-21T14:03:36;7.03;;;1.63;;
583;SDS011;27024;54.068;12.116;2022-08-21T14:06:12;4.93;;;1.30;;
583;SDS011;27024;54.068;12.116;2022-08-21T14:08:46;5.43;;;1.20;;
583;SDS011;27024;54.068;12.116;2022-08-21T14:11:41;6.13;;;1.58;;
583;SDS011;27024;54.068;12.116;2022-08-21T14:16:55;6.82;;;1.63;;
583;SDS011;27024;54.068;12.116;2022-08-21T14:19:26;5.40;;;1.48;;
583;SDS011;27024;54.068;12.116;2022-08-21T14:25:05;5.32;;;1.40;;
583;SDS011;27024;54.068;12.116;2022-08-21T14:28:03;7.15;;;1.35;;
583;SDS011;27024;54.068;12.116;2022-08-21T14:30:39;4.70;;;1.50;;
583;SDS011;27024;54.068;12.116;2022-08-21T14:33:09;5.32;;;1.27;;
583;SDS011;27024;54.068;12.116;2022-08-21T14:35:38;5.15;;;1.45;;
583;SDS011;27024;54.068;12.116;2022-08-21T14:38:19;6.32;;;1.30;;
583;SDS011;27024;54.068;12.116;2022-08-21T14:40:48;7.57;;;1.27;;
583;SDS011;27024;54.068;12.116;2022-08-21T14:43:18;6.57;;;1.40;;
583;SDS011;27024;54.068;12.116;2022-08-21T14:45:46;4.97;;;1.30;;
583;SDS011;27024;54.068;12.116;2022-08-21T14:48:14;6.53;;;1.50;;
583;SDS011;27024;54.068;12.116;2022-08-21T14:50:41;6.53;;;1.30;;
583;SDS011;27024;54.068;12.116;2022-08-21T14:53:08;4.07;;;1.20;;
583;SDS011;27024;54.068;12.116;2022-08-21T14:55:37;6.25;;;1.52;;
583;SDS011;27024;54.068;12.116;2022-08-21T14:58:23;4.78;;;1.20;;
583;SDS011;27024;54.068;12.116;2022-08-21T15:00:51;5.63;;;1.13;;
583;SDS011;27024;54.068;12.116;2022-08-21T15:03:18;7.18;;;1.25;;
583;SDS011;27024;54.068;12.116;2022-08-21T15:05:47;5.38;;;1.20;;
583;SDS011;27024;54.068;12.116;2022-08-21T15:08:15;6.40;;;1.55;;
583;SDS011;27024;54.068;12.116;2022-08-21T15:10:43;6.13;;;1.38;;
583;SDS011;27024;54.068;12.116;2022-08-21T15:13:30;4.47;;;1.38;;
583;SDS011;27024;54.068;12.116;2022-08-21T15:15:58;6.07;;;1.90;;
583;SDS011;27024;54.068;12.116;2022-08-21T15:18:25;5.75;;;1.10;;
583;SDS011;27024;54.068;12.116;2022-08-21T15:20:54;4.53;;;1.30;;
583;SDS011;27024;54.068;12.116;2022-08-21T15:23:21;6.10;;;1.30;;
583;SDS011;27024;54.068;12.116;2022-08-21T15:25:49;3.58;;;1.08;;
583;SDS011;27024;54.068;12.116;2022-08-21T15:28:17;5.38;;;1.23;;
583;SDS011;27024;54.068;12.116;2022-08-21T15:30:45;4.18;;;1.17;;
583;SDS011;27024;54.068;12.116;2022-08-21T15:33:12;6.70;;;1.20;;
583;SDS011;27024;54.068;12.116;2022-08-21T15:35:39;4.13;;;1.40;;
583;SDS011;27024;54.068;12.116;2022-08-21T15:38:06;7.85;;;1.23;;
583;SDS011;27024;54.068;12.116;2022-08-21T15:40:37;10.70;;;1.50;;
583;SDS011;27024;54.068;12.116;2022-08-21T15:43:47;3.92;;;1.20;;
583;SDS011;27024;54.068;12.116;2022-08-21T15:46:12;5.88;;;1.50;;
583;SDS011;27024;54.068;12.116;2022-08-21T15:48:41;7.20;;;1.48;;
583;SDS011;27024;54.068;12.116;2022-08-21T15:51:08;6.72;;;0.98;;
583;SDS011;27024;54.068;12.116;2022-08-21T15:53:36;4.85;;;1.13;;
583;SDS011;27024;54.068;12.116;2022-08-21T15:56:06;5.35;;;1.30;;
583;SDS011;27024;54.068;12.116;2022-08-21T15:58:43;6.63;;;1.50;;
583;SDS011;27024;54.068;12.116;2022-08-21T16:01:10;6.18;;;1.63;;
583;SDS011;27024;54.068;12.116;2022-08-21T16:03:37;6.97;;;1.40;;
583;SDS011;27024;54.068;12.116;2022-08-21T16:06:05;9.27;;;1.45;;
583;SDS011;27024;54.068;12.116;2022-08-21T16:08:32;5.72;;;1.52;;
583;SDS011;27024;54.068;12.116;2022-08-21T16:10:59;5.60;;;1.30;;
583;SDS011;27024;54.068;12.116;2022-08-21T16:13:31;4.80;;;1.60;;
583;SDS011;27024;54.068;12.116;2022-08-21T16:16:02;4.68;;;1.40;;
583;SDS011;27024;54.068;12.116;2022-08-21T16:18:30;4.45;;;1.10;;
583;SDS011;27024;54.068;12.116;2022-08-21T16:20:57;6.07;;;1.00;;
583;SDS011;27024;54.068;12.116;2022-08-21T16:23:23;6.28;;;1.27;;
583;SDS011;27024;54.068;12.116;2022-08-21T16:25:50;7.20;;;1.20;;
583;SDS011;27024;54.068;12.116;2022-08-21T16:28:18;6.90;;;1.25;;
583;SDS011;27024;54.068;12.116;2022-08-21T16:30:48;6.68;;;1.30;;
583;SDS011;27024;54.068;12.116;2022-08-21T16:33:25;3.38;;;1.20;;
583;SDS011;27024;54.068;12.116;2022-08-21T16:36:02;4.28;;;1.10;;
583;SDS011;27024;54.068;12.116;2022-08-21T16:38:30;6.10;;;1.40;;
583;SDS011;27024;54.068;12.116;2022-08-21T16:41:00;5.22;;;1.27;;
583;SDS011;27024;54.068;12.116;2022-08-21T16:43:30;4.97;;;1.05;;
583;SDS011;27024;54.068;12.116;2022-08-21T16:45:57;5.53;;;1.27;;
583;SDS011;27024;54.068;12.116;2022-08-21T16:48:26;6.45;;;1.30;;
583;SDS011;27024;54.068;12.116;2022-08-21T16:50:55;3.97;;;1.08;;
583;SDS011;27024;54.068;12.116;2022-08-21T16:53:24;6.80;;;1.60;;
583;SDS011;27024;54.068;12.116;2022-08-21T16:55:52;4.90;;;1.45;;
583;SDS011;27024;54.068;12.116;2022-08-21T16:58:23;4.95;;;1.20;;
583;SDS011;27024;54.068;12.116;2022-08-21T17:00:52;5.72;;;1.52;;
583;SDS011;27024;54.068;12.116;2022-08-21T17:03:19;6.53;;;1.25;;
583;SDS011;27024;54.068;12.116;2022-08-21T17:05:50;5.13;;;1.33;;
583;SDS011;27024;54.068;12.116;2022-08-21T17:08:17;6.97;;;1.55;;
583;SDS011;27024;54.068;12.116;2022-08-21T17:10:46;5.20;;;1.30;;
583;SDS011;27024;54.068;12.116;2022-08-21T17:13:15;5.57;;;1.42;;
583;SDS011;27024;54.068;12.116;2022-08-21T17:15:43;6.32;;;1.52;;
583;SDS011;27024;54.068;12.116;2022-08-21T17:18:12;6.07;;;2.80;;
583;SDS011;27024;54.068;12.116;2022-08-21T17:23:08;5.15;;;1.30;;